Decoded Metar for YTRE (TAREE AIRPORT in _UNIDENTIFIED) (IATA:TRO) | Meteo·Mobile Aviation Weather
aviador You're here:

YTRE Decoded Metar

TAREE AIRPORT in _UNIDENTIFIED
Report Time2018-09-22 11:00:00
UTC Time2018-09-22 11:18:15
Flight Rules vfr VFR
Wind040° at 04 kt
W.Decomp.*RWY 04: 3.9 kt HW 0.8 kt LCW
W.Rank040° ranks 10
Current wind is below 040° avg. (6.2)
Visibility9999 m
Phenomena:N/A
Clouds:N/A
Expected CloudBase > 1,200 ft AGL from Temp-Dew spread
CeilingNone
Temp14°C (ISA -1)
Dew Point11°C (82% RH)
AAT12.9°C
QNH1024 hPa
Density Alt-266 ft
Elevation39 ft
Report Wrong Elevation
Raw Report
YTRE 221100Z AUTO 04004KT 9999 // NCD 14/11 Q1024=

Extra information for YTRE:More info

Metar Taf Metar & Taf Last 4 Metars F.Rules Stats Wind Profile Meteogram Temp Stats Airport Information Weather charts Add Link Nearby VenuesMetar ALERT Operation Metar Decoded Social comments